This is the latest recevied weather packets stored in our database for station/object KC5EZZ. If no packets are shown the sender has not sent any weather packets the latest 10 day(s).
| Time | Temp. | Humidity | Pressure | Rain* | Wind** | Luminosity | Snow |
|---|---|---|---|---|---|---|---|
| 1787869107 | 25° C | 64% | 0 hPa | 0 mm | - | - | - |
| 1787868807 | 25° C | 64% | 0 hPa | 0 mm | - | - | - |
| 1787868507 | 23.89° C | 64% | 0 hPa | 0 mm | - | - | - |
| 1787868207 | 26.67° C | 62% | 0 hPa | 0 mm | - | - | - |
| 1787867907 | 26.67° C | 60% | 0 hPa | 0.25 mm | - | - | - |
| 1787867607 | 25.56° C | 59% | 0 hPa | 0.51 mm | - | - | - |
| 1787867307 | 26.11° C | 58% | 0 hPa | 0.51 mm | - | - | - |
| 1787867007 | 26.11° C | 56% | 0 hPa | 0.51 mm | - | - | - |
| 1787866707 | 27.22° C | 55% | 0 hPa | 0.51 mm | - | - | - |
| 1787866407 | 26.67° C | 53% | 0 hPa | 0.51 mm | - | - | - |
| 1787866107 | 27.78° C | 50% | 0 hPa | 0.51 mm | - | - | - |
| 1787865807 | 28.33° C | 48% | 0 hPa | 0.51 mm | - | - | - |
| 1787865507 | 28.89° C | 45% | 0 hPa | 0.51 mm | - | - | - |
| 1787865207 | 32.22° C | 40% | 0 hPa | 0.51 mm | - | - | - |
| 1787864907 | 33.33° C | 35% | 0 hPa | 0.51 mm | - | - | - |
| 1787864607 | 36.67° C | 27% | 0 hPa | 0.51 mm | - | - | - |
| 1787864307 | 38.33° C | 21% | 0 hPa | 0.25 mm | - | - | - |
| 1787864007 | 38.33° C | 17% | 0 hPa | 0 mm | - | - | - |
| 1787863708 | 38.33° C | 17% | 0 hPa | 0 mm | - | - | - |
| 1787863408 | 38.89° C | 17% | 0 hPa | 0 mm | - | - | - |
| 1787863108 | 38.33° C | 17% | 0 hPa | 0 mm | - | - | - |
| 1787862808 | 38.33° C | 17% | 0 hPa | 0 mm | - | - | - |
| 1787862511 | 37.78° C | 17% | 0 hPa | 0 mm | - | - | - |
| 1787862208 | 39.44° C | 16% | 0 hPa | 0 mm | - | - | - |
| 1787861908 | 39.44° C | 17% | 0 hPa | 0 mm | - | - | - |
* Rain latest hour (hover to see other rain measurements)
** Current wind speed in m/s (hover to see current wind gust speed)